sensor_id;sensor_type;location;lat;lon;timestamp;P1;durP1;ratioP1;P2;durP2;ratioP2
5811;SDS011;2932;52.400;9.558;2023-04-30T00:01:28;5.87;;;2.30;;
5811;SDS011;2932;52.400;9.558;2023-04-30T00:03:54;6.13;;;1.70;;
5811;SDS011;2932;52.400;9.558;2023-04-30T00:06:19;5.17;;;1.90;;
5811;SDS011;2932;52.400;9.558;2023-04-30T00:08:45;3.70;;;1.43;;
5811;SDS011;2932;52.400;9.558;2023-04-30T00:11:10;4.80;;;1.67;;
5811;SDS011;2932;52.400;9.558;2023-04-30T00:13:36;4.37;;;1.43;;
5811;SDS011;2932;52.400;9.558;2023-04-30T00:16:01;6.50;;;2.00;;
5811;SDS011;2932;52.400;9.558;2023-04-30T00:18:26;5.87;;;1.70;;
5811;SDS011;2932;52.400;9.558;2023-04-30T00:20:51;4.60;;;1.60;;
5811;SDS011;2932;52.400;9.558;2023-04-30T00:23:17;4.60;;;1.30;;
5811;SDS011;2932;52.400;9.558;2023-04-30T00:25:42;6.43;;;2.07;;
5811;SDS011;2932;52.400;9.558;2023-04-30T00:28:08;4.03;;;1.50;;
5811;SDS011;2932;52.400;9.558;2023-04-30T00:30:33;4.90;;;1.50;;
5811;SDS011;2932;52.400;9.558;2023-04-30T00:32:58;5.47;;;1.90;;
5811;SDS011;2932;52.400;9.558;2023-04-30T00:35:24;6.63;;;2.13;;
5811;SDS011;2932;52.400;9.558;2023-04-30T00:37:49;5.67;;;1.80;;
5811;SDS011;2932;52.400;9.558;2023-04-30T00:40:14;6.03;;;1.90;;
5811;SDS011;2932;52.400;9.558;2023-04-30T00:42:40;5.27;;;1.90;;
5811;SDS011;2932;52.400;9.558;2023-04-30T00:45:06;5.23;;;1.73;;
5811;SDS011;2932;52.400;9.558;2023-04-30T00:47:32;3.97;;;1.70;;
5811;SDS011;2932;52.400;9.558;2023-04-30T00:49:57;4.20;;;1.77;;
5811;SDS011;2932;52.400;9.558;2023-04-30T00:52:23;8.43;;;2.07;;
5811;SDS011;2932;52.400;9.558;2023-04-30T00:54:48;7.73;;;1.93;;
5811;SDS011;2932;52.400;9.558;2023-04-30T00:57:17;4.27;;;1.70;;
5811;SDS011;2932;52.400;9.558;2023-04-30T00:59:44;3.07;;;1.80;;
5811;SDS011;2932;52.400;9.558;2023-04-30T01:02:12;4.30;;;1.80;;
5811;SDS011;2932;52.400;9.558;2023-04-30T01:04:38;3.97;;;1.63;;
5811;SDS011;2932;52.400;9.558;2023-04-30T01:07:04;6.10;;;2.10;;
5811;SDS011;2932;52.400;9.558;2023-04-30T01:09:29;7.50;;;2.20;;
5811;SDS011;2932;52.400;9.558;2023-04-30T01:12:09;4.67;;;2.00;;
5811;SDS011;2932;52.400;9.558;2023-04-30T01:18:01;5.97;;;1.50;;
5811;SDS011;2932;52.400;9.558;2023-04-30T01:20:30;6.60;;;1.70;;
5811;SDS011;2932;52.400;9.558;2023-04-30T01:23:06;3.67;;;1.70;;
5811;SDS011;2932;52.400;9.558;2023-04-30T01:28:08;5.20;;;1.93;;
5811;SDS011;2932;52.400;9.558;2023-04-30T01:30:37;4.20;;;1.77;;
5811;SDS011;2932;52.400;9.558;2023-04-30T01:33:04;5.97;;;1.83;;
5811;SDS011;2932;52.400;9.558;2023-04-30T01:38:30;5.03;;;1.90;;
5811;SDS011;2932;52.400;9.558;2023-04-30T01:41:13;8.27;;;1.93;;
5811;SDS011;2932;52.400;9.558;2023-04-30T01:43:54;2.70;;;1.50;;
5811;SDS011;2932;52.400;9.558;2023-04-30T01:46:28;4.83;;;2.33;;
5811;SDS011;2932;52.400;9.558;2023-04-30T01:54:17;7.80;;;2.30;;
5811;SDS011;2932;52.400;9.558;2023-04-30T01:57:06;4.37;;;2.00;;
5811;SDS011;2932;52.400;9.558;2023-04-30T01:59:35;8.30;;;2.13;;
5811;SDS011;2932;52.400;9.558;2023-04-30T02:02:03;3.30;;;1.90;;
5811;SDS011;2932;52.400;9.558;2023-04-30T02:04:28;9.17;;;2.90;;
5811;SDS011;2932;52.400;9.558;2023-04-30T02:06:53;6.77;;;1.80;;
5811;SDS011;2932;52.400;9.558;2023-04-30T02:09:19;3.50;;;1.80;;
5811;SDS011;2932;52.400;9.558;2023-04-30T02:11:48;3.73;;;2.33;;
5811;SDS011;2932;52.400;9.558;2023-04-30T02:14:13;9.83;;;2.23;;
5811;SDS011;2932;52.400;9.558;2023-04-30T02:16:38;3.57;;;2.30;;
5811;SDS011;2932;52.400;9.558;2023-04-30T02:19:04;3.63;;;1.77;;
5811;SDS011;2932;52.400;9.558;2023-04-30T02:21:29;8.53;;;2.60;;
5811;SDS011;2932;52.400;9.558;2023-04-30T02:23:55;8.70;;;2.27;;
5811;SDS011;2932;52.400;9.558;2023-04-30T02:26:20;5.23;;;2.00;;
5811;SDS011;2932;52.400;9.558;2023-04-30T02:28:45;12.80;;;2.70;;
5811;SDS011;2932;52.400;9.558;2023-04-30T02:31:11;7.47;;;2.70;;
5811;SDS011;2932;52.400;9.558;2023-04-30T02:33:36;4.50;;;1.87;;
5811;SDS011;2932;52.400;9.558;2023-04-30T02:36:02;4.33;;;1.97;;
5811;SDS011;2932;52.400;9.558;2023-04-30T02:38:27;4.60;;;2.23;;
5811;SDS011;2932;52.400;9.558;2023-04-30T02:40:53;8.90;;;2.57;;
5811;SDS011;2932;52.400;9.558;2023-04-30T02:43:18;5.13;;;2.13;;
5811;SDS011;2932;52.400;9.558;2023-04-30T02:45:43;4.60;;;2.23;;
5811;SDS011;2932;52.400;9.558;2023-04-30T02:48:08;6.33;;;2.50;;
5811;SDS011;2932;52.400;9.558;2023-04-30T02:50:34;5.97;;;2.63;;
5811;SDS011;2932;52.400;9.558;2023-04-30T02:52:59;9.70;;;2.67;;
5811;SDS011;2932;52.400;9.558;2023-04-30T02:55:24;6.97;;;2.90;;
5811;SDS011;2932;52.400;9.558;2023-04-30T02:57:50;6.27;;;2.63;;
5811;SDS011;2932;52.400;9.558;2023-04-30T03:00:15;7.60;;;3.30;;
5811;SDS011;2932;52.400;9.558;2023-04-30T03:02:41;7.20;;;2.90;;
5811;SDS011;2932;52.400;9.558;2023-04-30T03:05:07;5.83;;;2.60;;
5811;SDS011;2932;52.400;9.558;2023-04-30T03:07:32;5.93;;;2.30;;
5811;SDS011;2932;52.400;9.558;2023-04-30T03:09:57;5.97;;;2.17;;
5811;SDS011;2932;52.400;9.558;2023-04-30T03:12:23;6.77;;;2.40;;
5811;SDS011;2932;52.400;9.558;2023-04-30T03:14:48;8.80;;;2.47;;
5811;SDS011;2932;52.400;9.558;2023-04-30T03:17:13;6.50;;;2.10;;
5811;SDS011;2932;52.400;9.558;2023-04-30T03:19:39;5.83;;;2.33;;
5811;SDS011;2932;52.400;9.558;2023-04-30T03:22:04;7.20;;;2.40;;
5811;SDS011;2932;52.400;9.558;2023-04-30T03:24:29;7.70;;;2.10;;
5811;SDS011;2932;52.400;9.558;2023-04-30T03:26:55;5.90;;;2.73;;
5811;SDS011;2932;52.400;9.558;2023-04-30T03:29:20;8.53;;;3.00;;
5811;SDS011;2932;52.400;9.558;2023-04-30T03:31:45;6.43;;;2.30;;
5811;SDS011;2932;52.400;9.558;2023-04-30T03:34:11;6.97;;;2.10;;
5811;SDS011;2932;52.400;9.558;2023-04-30T03:36:36;3.93;;;2.00;;
5811;SDS011;2932;52.400;9.558;2023-04-30T03:39:02;5.07;;;2.13;;
5811;SDS011;2932;52.400;9.558;2023-04-30T03:41:31;2.30;;;1.50;;
5811;SDS011;2932;52.400;9.558;2023-04-30T03:43:57;6.30;;;2.30;;
5811;SDS011;2932;52.400;9.558;2023-04-30T03:46:22;6.63;;;2.20;;
5811;SDS011;2932;52.400;9.558;2023-04-30T03:48:48;3.60;;;2.13;;
5811;SDS011;2932;52.400;9.558;2023-04-30T03:51:13;4.70;;;2.10;;
5811;SDS011;2932;52.400;9.558;2023-04-30T03:53:38;5.53;;;2.53;;
5811;SDS011;2932;52.400;9.558;2023-04-30T03:56:04;3.70;;;2.10;;
5811;SDS011;2932;52.400;9.558;2023-04-30T03:58:36;5.17;;;2.20;;
5811;SDS011;2932;52.400;9.558;2023-04-30T04:01:02;7.07;;;2.33;;
5811;SDS011;2932;52.400;9.558;2023-04-30T04:03:28;6.27;;;3.07;;
5811;SDS011;2932;52.400;9.558;2023-04-30T04:05:53;3.13;;;2.30;;
5811;SDS011;2932;52.400;9.558;2023-04-30T04:08:21;6.60;;;2.50;;
5811;SDS011;2932;52.400;9.558;2023-04-30T04:10:47;4.37;;;2.40;;
5811;SDS011;2932;52.400;9.558;2023-04-30T04:13:12;7.73;;;2.60;;
5811;SDS011;2932;52.400;9.558;2023-04-30T04:15:37;5.17;;;3.13;;
5811;SDS011;2932;52.400;9.558;2023-04-30T04:18:03;4.47;;;2.40;;
5811;SDS011;2932;52.400;9.558;2023-04-30T04:20:28;5.50;;;2.20;;
5811;SDS011;2932;52.400;9.558;2023-04-30T04:22:54;5.47;;;2.47;;
5811;SDS011;2932;52.400;9.558;2023-04-30T04:25:20;9.00;;;3.03;;
5811;SDS011;2932;52.400;9.558;2023-04-30T04:27:49;4.87;;;2.77;;
5811;SDS011;2932;52.400;9.558;2023-04-30T04:30:15;3.90;;;2.70;;
5811;SDS011;2932;52.400;9.558;2023-04-30T04:32:41;6.53;;;2.90;;
5811;SDS011;2932;52.400;9.558;2023-04-30T04:35:11;3.40;;;2.83;;
5811;SDS011;2932;52.400;9.558;2023-04-30T04:37:37;4.07;;;2.63;;
5811;SDS011;2932;52.400;9.558;2023-04-30T04:40:03;5.33;;;3.00;;
5811;SDS011;2932;52.400;9.558;2023-04-30T04:42:29;6.07;;;3.47;;
5811;SDS011;2932;52.400;9.558;2023-04-30T04:44:54;5.33;;;2.73;;
5811;SDS011;2932;52.400;9.558;2023-04-30T04:47:20;4.67;;;3.00;;
5811;SDS011;2932;52.400;9.558;2023-04-30T04:49:46;7.40;;;2.83;;
5811;SDS011;2932;52.400;9.558;2023-04-30T04:52:12;5.37;;;3.30;;
5811;SDS011;2932;52.400;9.558;2023-04-30T04:54:37;5.20;;;3.47;;
5811;SDS011;2932;52.400;9.558;2023-04-30T04:57:02;5.03;;;3.33;;
5811;SDS011;2932;52.400;9.558;2023-04-30T04:59:28;5.93;;;3.20;;
5811;SDS011;2932;52.400;9.558;2023-04-30T05:01:53;4.67;;;2.90;;
5811;SDS011;2932;52.400;9.558;2023-04-30T05:04:18;5.00;;;3.20;;
5811;SDS011;2932;52.400;9.558;2023-04-30T05:06:44;6.70;;;3.20;;
5811;SDS011;2932;52.400;9.558;2023-04-30T05:09:09;5.63;;;3.40;;
5811;SDS011;2932;52.400;9.558;2023-04-30T05:11:34;4.47;;;3.07;;
5811;SDS011;2932;52.400;9.558;2023-04-30T05:14:00;5.97;;;3.20;;
5811;SDS011;2932;52.400;9.558;2023-04-30T05:16:25;4.47;;;3.33;;
5811;SDS011;2932;52.400;9.558;2023-04-30T05:18:50;6.60;;;3.90;;
5811;SDS011;2932;52.400;9.558;2023-04-30T05:21:16;8.77;;;3.77;;
5811;SDS011;2932;52.400;9.558;2023-04-30T05:23:41;7.57;;;3.10;;
5811;SDS011;2932;52.400;9.558;2023-04-30T05:26:06;7.97;;;3.10;;
5811;SDS011;2932;52.400;9.558;2023-04-30T05:28:32;7.07;;;3.67;;
5811;SDS011;2932;52.400;9.558;2023-04-30T05:30:57;6.30;;;3.10;;
5811;SDS011;2932;52.400;9.558;2023-04-30T05:33:23;6.43;;;3.30;;
5811;SDS011;2932;52.400;9.558;2023-04-30T05:35:48;7.03;;;3.60;;
5811;SDS011;2932;52.400;9.558;2023-04-30T05:38:13;7.13;;;3.30;;
5811;SDS011;2932;52.400;9.558;2023-04-30T05:40:39;5.63;;;3.93;;
5811;SDS011;2932;52.400;9.558;2023-04-30T05:43:04;7.30;;;3.37;;
5811;SDS011;2932;52.400;9.558;2023-04-30T05:45:30;6.03;;;3.67;;
5811;SDS011;2932;52.400;9.558;2023-04-30T05:47:55;5.80;;;3.23;;
5811;SDS011;2932;52.400;9.558;2023-04-30T05:50:20;7.10;;;3.00;;
5811;SDS011;2932;52.400;9.558;2023-04-30T05:52:46;8.03;;;3.20;;
5811;SDS011;2932;52.400;9.558;2023-04-30T05:55:11;4.70;;;2.67;;
5811;SDS011;2932;52.400;9.558;2023-04-30T05:57:37;9.63;;;2.87;;
5811;SDS011;2932;52.400;9.558;2023-04-30T06:00:02;8.93;;;2.50;;
5811;SDS011;2932;52.400;9.558;2023-04-30T06:02:30;5.40;;;2.70;;
5811;SDS011;2932;52.400;9.558;2023-04-30T06:04:56;5.83;;;2.27;;
5811;SDS011;2932;52.400;9.558;2023-04-30T06:07:21;8.40;;;2.57;;
5811;SDS011;2932;52.400;9.558;2023-04-30T06:09:46;9.37;;;2.70;;
5811;SDS011;2932;52.400;9.558;2023-04-30T06:12:12;4.97;;;2.50;;
5811;SDS011;2932;52.400;9.558;2023-04-30T06:14:37;5.90;;;2.47;;
5811;SDS011;2932;52.400;9.558;2023-04-30T06:17:03;4.70;;;2.40;;
5811;SDS011;2932;52.400;9.558;2023-04-30T06:19:28;6.67;;;2.60;;
5811;SDS011;2932;52.400;9.558;2023-04-30T06:21:54;9.33;;;2.73;;
5811;SDS011;2932;52.400;9.558;2023-04-30T06:24:19;6.80;;;2.50;;
5811;SDS011;2932;52.400;9.558;2023-04-30T06:26:44;8.73;;;2.67;;
5811;SDS011;2932;52.400;9.558;2023-04-30T06:29:10;7.27;;;2.83;;
5811;SDS011;2932;52.400;9.558;2023-04-30T06:31:35;10.40;;;2.50;;
5811;SDS011;2932;52.400;9.558;2023-04-30T06:34:00;8.67;;;2.53;;
5811;SDS011;2932;52.400;9.558;2023-04-30T06:36:26;9.37;;;2.93;;
5811;SDS011;2932;52.400;9.558;2023-04-30T06:38:51;6.63;;;2.73;;
5811;SDS011;2932;52.400;9.558;2023-04-30T06:41:16;7.93;;;2.10;;
5811;SDS011;2932;52.400;9.558;2023-04-30T06:43:42;8.13;;;2.50;;
5811;SDS011;2932;52.400;9.558;2023-04-30T06:46:07;6.97;;;2.60;;
5811;SDS011;2932;52.400;9.558;2023-04-30T06:48:33;10.30;;;2.50;;
5811;SDS011;2932;52.400;9.558;2023-04-30T06:50:58;6.77;;;2.67;;
5811;SDS011;2932;52.400;9.558;2023-04-30T06:53:23;6.73;;;2.10;;
5811;SDS011;2932;52.400;9.558;2023-04-30T06:55:49;7.03;;;2.47;;
5811;SDS011;2932;52.400;9.558;2023-04-30T06:58:15;8.87;;;2.30;;
5811;SDS011;2932;52.400;9.558;2023-04-30T07:00:41;5.50;;;2.20;;
5811;SDS011;2932;52.400;9.558;2023-04-30T07:03:06;7.70;;;2.20;;
5811;SDS011;2932;52.400;9.558;2023-04-30T07:05:32;9.13;;;3.47;;
5811;SDS011;2932;52.400;9.558;2023-04-30T07:07:59;8.43;;;2.03;;
5811;SDS011;2932;52.400;9.558;2023-04-30T07:10:25;10.43;;;2.20;;
5811;SDS011;2932;52.400;9.558;2023-04-30T07:12:51;9.87;;;2.30;;
5811;SDS011;2932;52.400;9.558;2023-04-30T07:15:16;10.63;;;2.30;;
5811;SDS011;2932;52.400;9.558;2023-04-30T07:17:41;6.87;;;1.90;;
5811;SDS011;2932;52.400;9.558;2023-04-30T07:20:07;6.70;;;1.77;;
5811;SDS011;2932;52.400;9.558;2023-04-30T07:22:33;9.83;;;2.30;;
5811;SDS011;2932;52.400;9.558;2023-04-30T07:24:58;7.63;;;2.50;;
5811;SDS011;2932;52.400;9.558;2023-04-30T07:27:24;9.10;;;2.10;;
5811;SDS011;2932;52.400;9.558;2023-04-30T07:29:50;3.63;;;2.00;;
5811;SDS011;2932;52.400;9.558;2023-04-30T07:32:16;6.13;;;2.40;;
5811;SDS011;2932;52.400;9.558;2023-04-30T07:34:41;7.03;;;2.57;;
5811;SDS011;2932;52.400;9.558;2023-04-30T07:37:07;8.93;;;2.80;;
5811;SDS011;2932;52.400;9.558;2023-04-30T07:39:33;9.23;;;4.23;;
5811;SDS011;2932;52.400;9.558;2023-04-30T07:41:58;8.20;;;1.90;;
5811;SDS011;2932;52.400;9.558;2023-04-30T07:44:27;3.87;;;2.00;;
5811;SDS011;2932;52.400;9.558;2023-04-30T07:46:52;6.13;;;2.33;;
5811;SDS011;2932;52.400;9.558;2023-04-30T07:49:18;7.00;;;2.70;;
5811;SDS011;2932;52.400;9.558;2023-04-30T07:51:43;7.03;;;2.10;;
5811;SDS011;2932;52.400;9.558;2023-04-30T07:54:09;9.80;;;3.10;;
5811;SDS011;2932;52.400;9.558;2023-04-30T07:56:35;7.80;;;2.40;;
5811;SDS011;2932;52.400;9.558;2023-04-30T07:59:00;7.00;;;3.03;;
5811;SDS011;2932;52.400;9.558;2023-04-30T08:01:25;7.07;;;2.73;;
5811;SDS011;2932;52.400;9.558;2023-04-30T08:03:51;6.87;;;2.53;;
5811;SDS011;2932;52.400;9.558;2023-04-30T08:06:16;4.80;;;1.90;;
5811;SDS011;2932;52.400;9.558;2023-04-30T08:08:41;5.90;;;1.80;;
5811;SDS011;2932;52.400;9.558;2023-04-30T08:11:06;8.23;;;2.30;;
5811;SDS011;2932;52.400;9.558;2023-04-30T08:13:32;4.23;;;1.93;;
5811;SDS011;2932;52.400;9.558;2023-04-30T08:15:57;6.13;;;2.30;;
5811;SDS011;2932;52.400;9.558;2023-04-30T08:18:22;4.30;;;1.93;;
5811;SDS011;2932;52.400;9.558;2023-04-30T08:20:48;8.57;;;2.23;;
5811;SDS011;2932;52.400;9.558;2023-04-30T08:23:13;7.77;;;2.00;;
5811;SDS011;2932;52.400;9.558;2023-04-30T08:25:40;5.70;;;1.73;;
5811;SDS011;2932;52.400;9.558;2023-04-30T08:28:06;4.77;;;1.83;;
5811;SDS011;2932;52.400;9.558;2023-04-30T08:30:31;5.40;;;1.70;;
5811;SDS011;2932;52.400;9.558;2023-04-30T08:32:56;10.37;;;3.03;;
5811;SDS011;2932;52.400;9.558;2023-04-30T08:35:22;12.30;;;3.93;;
5811;SDS011;2932;52.400;9.558;2023-04-30T08:37:47;5.77;;;2.23;;
5811;SDS011;2932;52.400;9.558;2023-04-30T08:40:13;7.83;;;2.07;;
5811;SDS011;2932;52.400;9.558;2023-04-30T08:42:40;9.70;;;2.43;;
5811;SDS011;2932;52.400;9.558;2023-04-30T08:45:10;7.13;;;1.80;;
5811;SDS011;2932;52.400;9.558;2023-04-30T08:47:36;4.63;;;1.87;;
5811;SDS011;2932;52.400;9.558;2023-04-30T08:50:03;7.77;;;1.73;;
5811;SDS011;2932;52.400;9.558;2023-04-30T08:52:29;5.00;;;1.70;;
5811;SDS011;2932;52.400;9.558;2023-04-30T08:54:58;7.20;;;2.23;;
5811;SDS011;2932;52.400;9.558;2023-04-30T08:57:25;8.07;;;4.67;;
5811;SDS011;2932;52.400;9.558;2023-04-30T08:59:52;5.70;;;3.47;;
5811;SDS011;2932;52.400;9.558;2023-04-30T09:02:18;3.83;;;1.93;;
5811;SDS011;2932;52.400;9.558;2023-04-30T09:04:43;3.33;;;1.70;;
5811;SDS011;2932;52.400;9.558;2023-04-30T09:07:09;3.30;;;1.70;;
5811;SDS011;2932;52.400;9.558;2023-04-30T09:09:38;6.17;;;2.23;;
5811;SDS011;2932;52.400;9.558;2023-04-30T09:12:14;6.00;;;1.93;;
5811;SDS011;2932;52.400;9.558;2023-04-30T09:15:03;9.90;;;2.00;;
5811;SDS011;2932;52.400;9.558;2023-04-30T09:17:29;7.30;;;2.20;;
5811;SDS011;2932;52.400;9.558;2023-04-30T09:20:12;4.80;;;1.87;;
5811;SDS011;2932;52.400;9.558;2023-04-30T09:22:38;7.20;;;1.90;;
5811;SDS011;2932;52.400;9.558;2023-04-30T09:25:05;6.93;;;1.92;;
5811;SDS011;2932;52.400;9.558;2023-04-30T09:27:32;6.83;;;2.10;;
5811;SDS011;2932;52.400;9.558;2023-04-30T09:29:57;6.90;;;1.90;;
5811;SDS011;2932;52.400;9.558;2023-04-30T09:32:22;7.23;;;2.40;;
5811;SDS011;2932;52.400;9.558;2023-04-30T09:34:48;5.70;;;1.73;;
5811;SDS011;2932;52.400;9.558;2023-04-30T09:37:13;5.27;;;2.00;;
5811;SDS011;2932;52.400;9.558;2023-04-30T09:39:46;4.57;;;1.73;;
5811;SDS011;2932;52.400;9.558;2023-04-30T09:42:16;6.70;;;2.35;;
5811;SDS011;2932;52.400;9.558;2023-04-30T09:44:43;5.22;;;2.05;;
5811;SDS011;2932;52.400;9.558;2023-04-30T09:49:40;5.72;;;1.73;;
5811;SDS011;2932;52.400;9.558;2023-04-30T09:52:07;5.07;;;1.70;;
5811;SDS011;2932;52.400;9.558;2023-04-30T09:54:32;4.97;;;1.70;;
5811;SDS011;2932;52.400;9.558;2023-04-30T09:57:00;4.88;;;1.60;;
5811;SDS011;2932;52.400;9.558;2023-04-30T09:59:32;4.72;;;1.63;;
5811;SDS011;2932;52.400;9.558;2023-04-30T10:02:03;4.35;;;2.00;;
5811;SDS011;2932;52.400;9.558;2023-04-30T10:04:32;7.50;;;3.40;;
5811;SDS011;2932;52.400;9.558;2023-04-30T10:07:00;6.93;;;2.22;;
5811;SDS011;2932;52.400;9.558;2023-04-30T10:09:28;7.38;;;2.30;;
5811;SDS011;2932;52.400;9.558;2023-04-30T10:12:00;8.75;;;1.92;;
5811;SDS011;2932;52.400;9.558;2023-04-30T10:14:31;5.15;;;1.98;;
5811;SDS011;2932;52.400;9.558;2023-04-30T10:17:02;2.72;;;1.67;;
5811;SDS011;2932;52.400;9.558;2023-04-30T10:19:35;7.00;;;2.00;;
5811;SDS011;2932;52.400;9.558;2023-04-30T10:22:05;7.97;;;1.85;;
5811;SDS011;2932;52.400;9.558;2023-04-30T10:24:31;4.07;;;1.40;;
5811;SDS011;2932;52.400;9.558;2023-04-30T10:26:58;4.43;;;1.75;;
5811;SDS011;2932;52.400;9.558;2023-04-30T10:29:24;4.97;;;2.10;;
5811;SDS011;2932;52.400;9.558;2023-04-30T10:31:50;3.38;;;1.40;;
5811;SDS011;2932;52.400;9.558;2023-04-30T10:39:53;5.55;;;1.85;;
5811;SDS011;2932;52.400;9.558;2023-04-30T10:42:20;7.07;;;1.75;;
5811;SDS011;2932;52.400;9.558;2023-04-30T10:44:45;4.75;;;1.40;;
5811;SDS011;2932;52.400;9.558;2023-04-30T10:47:12;4.93;;;1.60;;
5811;SDS011;2932;52.400;9.558;2023-04-30T10:49:38;3.83;;;1.50;;
5811;SDS011;2932;52.400;9.558;2023-04-30T10:52:05;5.32;;;1.90;;
5811;SDS011;2932;52.400;9.558;2023-04-30T10:54:31;6.18;;;1.92;;
5811;SDS011;2932;52.400;9.558;2023-04-30T10:57:14;5.95;;;2.75;;
5811;SDS011;2932;52.400;9.558;2023-04-30T11:02:37;2.90;;;1.58;;
5811;SDS011;2932;52.400;9.558;2023-04-30T11:05:07;3.47;;;1.35;;
5811;SDS011;2932;52.400;9.558;2023-04-30T11:07:44;4.03;;;2.20;;
5811;SDS011;2932;52.400;9.558;2023-04-30T11:10:33;4.30;;;1.85;;
5811;SDS011;2932;52.400;9.558;2023-04-30T11:13:02;2.97;;;1.58;;
5811;SDS011;2932;52.400;9.558;2023-04-30T11:15:34;3.63;;;1.42;;
5811;SDS011;2932;52.400;9.558;2023-04-30T11:18:06;4.22;;;1.80;;
5811;SDS011;2932;52.400;9.558;2023-04-30T11:20:32;4.72;;;2.17;;
5811;SDS011;2932;52.400;9.558;2023-04-30T11:23:10;3.60;;;1.50;;
5811;SDS011;2932;52.400;9.558;2023-04-30T11:25:40;4.53;;;1.88;;
5811;SDS011;2932;52.400;9.558;2023-04-30T11:28:07;4.50;;;1.80;;
5811;SDS011;2932;52.400;9.558;2023-04-30T11:30:38;4.57;;;2.03;;
5811;SDS011;2932;52.400;9.558;2023-04-30T11:33:03;5.20;;;2.55;;
5811;SDS011;2932;52.400;9.558;2023-04-30T11:35:29;4.25;;;2.00;;
5811;SDS011;2932;52.400;9.558;2023-04-30T11:37:56;11.98;;;4.43;;
5811;SDS011;2932;52.400;9.558;2023-04-30T11:40:23;5.65;;;2.33;;
5811;SDS011;2932;52.400;9.558;2023-04-30T11:42:50;6.43;;;2.55;;
5811;SDS011;2932;52.400;9.558;2023-04-30T11:45:16;3.72;;;1.85;;
5811;SDS011;2932;52.400;9.558;2023-04-30T11:47:43;3.33;;;1.85;;
5811;SDS011;2932;52.400;9.558;2023-04-30T11:50:11;3.70;;;1.73;;
5811;SDS011;2932;52.400;9.558;2023-04-30T11:52:41;3.80;;;1.70;;
5811;SDS011;2932;52.400;9.558;2023-04-30T11:55:16;4.68;;;2.45;;
5811;SDS011;2932;52.400;9.558;2023-04-30T11:57:44;5.53;;;1.95;;
5811;SDS011;2932;52.400;9.558;2023-04-30T12:00:23;3.85;;;1.63;;
5811;SDS011;2932;52.400;9.558;2023-04-30T12:02:52;4.07;;;1.80;;
5811;SDS011;2932;52.400;9.558;2023-04-30T12:05:21;4.22;;;1.70;;
5811;SDS011;2932;52.400;9.558;2023-04-30T12:07:55;4.63;;;1.67;;
5811;SDS011;2932;52.400;9.558;2023-04-30T12:10:21;3.70;;;1.73;;
5811;SDS011;2932;52.400;9.558;2023-04-30T12:12:49;7.22;;;2.33;;
5811;SDS011;2932;52.400;9.558;2023-04-30T12:15:19;4.15;;;1.70;;
5811;SDS011;2932;52.400;9.558;2023-04-30T12:17:50;3.60;;;1.70;;
5811;SDS011;2932;52.400;9.558;2023-04-30T12:20:15;4.05;;;1.83;;
5811;SDS011;2932;52.400;9.558;2023-04-30T12:22:41;4.25;;;1.83;;
5811;SDS011;2932;52.400;9.558;2023-04-30T12:25:10;4.97;;;1.88;;
5811;SDS011;2932;52.400;9.558;2023-04-30T12:27:38;6.55;;;2.00;;
5811;SDS011;2932;52.400;9.558;2023-04-30T12:30:05;7.25;;;1.92;;
5811;SDS011;2932;52.400;9.558;2023-04-30T12:32:41;8.45;;;1.98;;
5811;SDS011;2932;52.400;9.558;2023-04-30T12:35:08;4.22;;;1.48;;
5811;SDS011;2932;52.400;9.558;2023-04-30T12:37:42;5.22;;;1.50;;
5811;SDS011;2932;52.400;9.558;2023-04-30T12:40:09;3.22;;;1.30;;
5811;SDS011;2932;52.400;9.558;2023-04-30T12:42:35;3.50;;;1.95;;
5811;SDS011;2932;52.400;9.558;2023-04-30T12:45:01;6.13;;;1.73;;
5811;SDS011;2932;52.400;9.558;2023-04-30T12:47:28;3.92;;;1.85;;
5811;SDS011;2932;52.400;9.558;2023-04-30T12:49:53;3.97;;;1.80;;
5811;SDS011;2932;52.400;9.558;2023-04-30T12:52:22;4.45;;;1.83;;
5811;SDS011;2932;52.400;9.558;2023-04-30T12:54:49;3.83;;;1.85;;
5811;SDS011;2932;52.400;9.558;2023-04-30T12:57:14;5.22;;;1.92;;
5811;SDS011;2932;52.400;9.558;2023-04-30T13:02:17;5.07;;;1.50;;
5811;SDS011;2932;52.400;9.558;2023-04-30T13:04:43;4.75;;;1.73;;
5811;SDS011;2932;52.400;9.558;2023-04-30T13:07:09;6.13;;;1.85;;
5811;SDS011;2932;52.400;9.558;2023-04-30T13:09:36;4.30;;;1.70;;
5811;SDS011;2932;52.400;9.558;2023-04-30T13:12:02;8.07;;;1.58;;
5811;SDS011;2932;52.400;9.558;2023-04-30T13:14:28;6.03;;;1.90;;
5811;SDS011;2932;52.400;9.558;2023-04-30T13:16:54;4.32;;;1.55;;
5811;SDS011;2932;52.400;9.558;2023-04-30T13:19:20;4.53;;;1.67;;
5811;SDS011;2932;52.400;9.558;2023-04-30T13:21:45;4.60;;;1.88;;
5811;SDS011;2932;52.400;9.558;2023-04-30T13:24:11;3.35;;;1.50;;
5811;SDS011;2932;52.400;9.558;2023-04-30T13:26:36;3.78;;;1.77;;
5811;SDS011;2932;52.400;9.558;2023-04-30T13:29:02;2.97;;;1.42;;
5811;SDS011;2932;52.400;9.558;2023-04-30T13:31:28;5.40;;;1.80;;
5811;SDS011;2932;52.400;9.558;2023-04-30T13:33:53;4.35;;;2.33;;
5811;SDS011;2932;52.400;9.558;2023-04-30T13:36:19;6.18;;;1.75;;
5811;SDS011;2932;52.400;9.558;2023-04-30T13:38:45;4.15;;;2.03;;
5811;SDS011;2932;52.400;9.558;2023-04-30T13:41:10;3.63;;;1.65;;
5811;SDS011;2932;52.400;9.558;2023-04-30T13:43:36;5.18;;;1.80;;
5811;SDS011;2932;52.400;9.558;2023-04-30T13:46:02;4.88;;;1.75;;
5811;SDS011;2932;52.400;9.558;2023-04-30T13:48:28;4.55;;;1.85;;
5811;SDS011;2932;52.400;9.558;2023-04-30T13:50:54;6.82;;;1.98;;
5811;SDS011;2932;52.400;9.558;2023-04-30T13:53:19;5.22;;;1.80;;
5811;SDS011;2932;52.400;9.558;2023-04-30T13:55:45;3.58;;;1.45;;
5811;SDS011;2932;52.400;9.558;2023-04-30T13:58:10;4.88;;;1.55;;
5811;SDS011;2932;52.400;9.558;2023-04-30T14:00:37;3.78;;;1.58;;
5811;SDS011;2932;52.400;9.558;2023-04-30T14:03:02;5.95;;;1.70;;
5811;SDS011;2932;52.400;9.558;2023-04-30T14:05:28;2.55;;;1.45;;
5811;SDS011;2932;52.400;9.558;2023-04-30T14:07:53;5.40;;;1.73;;
5811;SDS011;2932;52.400;9.558;2023-04-30T14:10:18;3.65;;;1.50;;
5811;SDS011;2932;52.400;9.558;2023-04-30T14:12:44;6.25;;;1.50;;
5811;SDS011;2932;52.400;9.558;2023-04-30T14:15:09;4.18;;;1.95;;
5811;SDS011;2932;52.400;9.558;2023-04-30T14:17:35;4.25;;;1.83;;
5811;SDS011;2932;52.400;9.558;2023-04-30T14:20:00;3.08;;;1.83;;
5811;SDS011;2932;52.400;9.558;2023-04-30T14:22:25;7.60;;;2.05;;
5811;SDS011;2932;52.400;9.558;2023-04-30T14:24:51;6.13;;;1.90;;
5811;SDS011;2932;52.400;9.558;2023-04-30T14:27:17;6.13;;;2.05;;
5811;SDS011;2932;52.400;9.558;2023-04-30T14:29:43;4.18;;;2.50;;
5811;SDS011;2932;52.400;9.558;2023-04-30T14:32:08;7.13;;;1.77;;
5811;SDS011;2932;52.400;9.558;2023-04-30T14:34:33;6.60;;;1.70;;
5811;SDS011;2932;52.400;9.558;2023-04-30T14:37:00;4.47;;;1.70;;
5811;SDS011;2932;52.400;9.558;2023-04-30T14:39:27;3.15;;;1.55;;
5811;SDS011;2932;52.400;9.558;2023-04-30T14:41:52;3.35;;;1.92;;
5811;SDS011;2932;52.400;9.558;2023-04-30T14:44:18;3.92;;;1.92;;
5811;SDS011;2932;52.400;9.558;2023-04-30T14:46:43;3.63;;;1.60;;
5811;SDS011;2932;52.400;9.558;2023-04-30T14:49:08;4.13;;;1.95;;
5811;SDS011;2932;52.400;9.558;2023-04-30T14:51:34;3.05;;;1.70;;
5811;SDS011;2932;52.400;9.558;2023-04-30T14:54:00;4.03;;;1.60;;
5811;SDS011;2932;52.400;9.558;2023-04-30T14:56:26;3.30;;;1.52;;
5811;SDS011;2932;52.400;9.558;2023-04-30T14:58:52;3.72;;;1.35;;
5811;SDS011;2932;52.400;9.558;2023-04-30T15:01:17;3.08;;;1.40;;
5811;SDS011;2932;52.400;9.558;2023-04-30T15:03:42;6.55;;;2.25;;
5811;SDS011;2932;52.400;9.558;2023-04-30T15:06:08;5.63;;;1.35;;
5811;SDS011;2932;52.400;9.558;2023-04-30T15:08:33;3.55;;;1.60;;
5811;SDS011;2932;52.400;9.558;2023-04-30T15:10:58;4.15;;;1.52;;
5811;SDS011;2932;52.400;9.558;2023-04-30T15:13:24;4.85;;;2.10;;
5811;SDS011;2932;52.400;9.558;2023-04-30T15:15:50;4.20;;;1.75;;
5811;SDS011;2932;52.400;9.558;2023-04-30T15:18:20;8.50;;;2.38;;
5811;SDS011;2932;52.400;9.558;2023-04-30T15:20:45;5.38;;;2.15;;
5811;SDS011;2932;52.400;9.558;2023-04-30T15:23:11;5.35;;;3.25;;
5811;SDS011;2932;52.400;9.558;2023-04-30T15:25:36;4.35;;;1.73;;
5811;SDS011;2932;52.400;9.558;2023-04-30T15:28:01;4.10;;;1.60;;
5811;SDS011;2932;52.400;9.558;2023-04-30T15:30:29;4.78;;;1.75;;
5811;SDS011;2932;52.400;9.558;2023-04-30T15:32:54;4.72;;;1.70;;
5811;SDS011;2932;52.400;9.558;2023-04-30T15:35:20;3.58;;;1.80;;
5811;SDS011;2932;52.400;9.558;2023-04-30T15:37:45;2.40;;;1.65;;
5811;SDS011;2932;52.400;9.558;2023-04-30T15:40:10;4.43;;;1.63;;